Time;durP1;ratioP1;P1;durP2;ratioP2;P2;SDS_P1;SDS_P2;PMS_P1;PMS_P2;Temp;Humidity;BMP_temperature;BMP_pressure;BME280_temperature;BME280_humidity;BME280_pressure;Samples;Min_cycle;Max_cycle;Signal;HPM_P1;HPM_P2
2023/03/06 00:00:21;;;;;;;6.33;2.10;;;;;;;;;;5020721;28;20034;-63
2023/03/06 00:02:46;;;;;;;5.88;2.17;;;;;;;;;;5018036;28;20026;-65
2023/03/06 00:05:12;;;;;;;5.85;2.38;;;;;;;;;;5010913;28;20101;-65
2023/03/06 00:07:38;;;;;;;8.48;2.50;;;;;;;;;;5012663;28;20033;-65
2023/03/06 00:10:03;;;;;;;6.47;2.47;;;;;;;;;;5014646;28;20065;-64
2023/03/06 00:12:28;;;;;;;6.40;2.20;;;;;;;;;;5011090;28;20021;-64
2023/03/06 00:14:53;;;;;;;6.27;2.33;;;;;;;;;;5008854;28;20501;-64
2023/03/06 00:17:18;;;;;;;9.00;2.63;;;;;;;;;;5014053;28;20511;-64
2023/03/06 00:19:44;;;;;;;6.18;2.20;;;;;;;;;;5012844;28;20113;-63
2023/03/06 00:22:11;;;;;;;6.70;2.40;;;;;;;;;;5009232;28;20025;-63
2023/03/06 00:24:37;;;;;;;6.75;2.17;;;;;;;;;;5010596;28;20037;-63
2023/03/06 00:27:02;;;;;;;6.87;2.60;;;;;;;;;;5010157;28;20022;-63
2023/03/06 00:29:27;;;;;;;5.87;2.30;;;;;;;;;;5010332;28;20021;-63
2023/03/06 00:31:52;;;;;;;7.47;2.53;;;;;;;;;;5013356;28;20028;-64
2023/03/06 00:34:17;;;;;;;6.23;2.37;;;;;;;;;;5012776;28;20030;-63
2023/03/06 00:36:42;;;;;;;6.47;2.33;;;;;;;;;;5013052;28;20028;-64
2023/03/06 00:39:08;;;;;;;6.00;2.38;;;;;;;;;;5014065;28;20027;-63
2023/03/06 00:41:33;;;;;;;5.20;2.30;;;;;;;;;;5010418;28;20044;-64
2023/03/06 00:43:58;;;;;;;5.18;2.28;;;;;;;;;;5013253;28;20493;-63
2023/03/06 00:46:23;;;;;;;6.20;2.42;;;;;;;;;;5007016;28;20029;-63
2023/03/06 00:48:48;;;;;;;6.63;2.73;;;;;;;;;;5014915;28;20038;-63
2023/03/06 00:51:13;;;;;;;7.22;2.72;;;;;;;;;;5020539;28;20069;-63
2023/03/06 00:53:38;;;;;;;6.35;2.50;;;;;;;;;;5013104;28;20477;-64
2023/03/06 00:56:04;;;;;;;7.18;2.63;;;;;;;;;;5012003;28;20025;-63
2023/03/06 00:58:29;;;;;;;6.40;2.60;;;;;;;;;;5025328;28;20103;-62
2023/03/06 01:00:54;;;;;;;7.00;2.60;;;;;;;;;;5011612;28;20014;-62
2023/03/06 01:03:19;;;;;;;5.87;2.40;;;;;;;;;;5011412;28;20049;-63
2023/03/06 01:05:44;;;;;;;5.57;2.20;;;;;;;;;;5011951;28;20013;-63
2023/03/06 01:08:09;;;;;;;5.93;2.53;;;;;;;;;;5011973;28;20021;-62
2023/03/06 01:10:38;;;;;;;6.72;2.60;;;;;;;;;;5016833;28;20106;-62
2023/03/06 01:13:03;;;;;;;5.63;2.33;;;;;;;;;;5017226;28;20095;-63
2023/03/06 01:15:28;;;;;;;6.68;2.40;;;;;;;;;;5009534;28;20112;-63
2023/03/06 01:17:54;;;;;;;6.50;2.72;;;;;;;;;;5019909;28;20048;-63
2023/03/06 01:20:19;;;;;;;6.63;2.70;;;;;;;;;;5021612;28;20021;-62
2023/03/06 01:22:44;;;;;;;9.05;3.00;;;;;;;;;;5016215;28;20018;-62
2023/03/06 01:25:10;;;;;;;7.05;2.50;;;;;;;;;;5018868;28;20034;-63
2023/03/06 01:27:35;;;;;;;6.18;2.55;;;;;;;;;;5018665;28;20018;-63
2023/03/06 01:30:00;;;;;;;7.03;2.60;;;;;;;;;;5025858;28;20030;-62
2023/03/06 01:32:26;;;;;;;7.75;3.05;;;;;;;;;;5016665;28;20038;-64
2023/03/06 01:34:51;;;;;;;8.07;2.80;;;;;;;;;;5027533;28;20033;-63
2023/03/06 01:37:16;;;;;;;6.23;2.80;;;;;;;;;;5015205;28;20025;-63
2023/03/06 01:39:41;;;;;;;8.05;2.92;;;;;;;;;;5024788;28;20022;-63
2023/03/06 01:42:06;;;;;;;7.23;3.20;;;;;;;;;;5021396;28;20018;-63
2023/03/06 01:44:32;;;;;;;7.00;2.70;;;;;;;;;;5019842;28;20413;-63
2023/03/06 01:46:57;;;;;;;6.87;2.70;;;;;;;;;;5016448;28;20049;-62
2023/03/06 01:49:27;;;;;;;8.13;3.03;;;;;;;;;;5020054;28;20026;-62
2023/03/06 01:52:09;;;;;;;6.50;2.85;;;;;;;;;;5016827;28;20065;-62
2023/03/06 01:54:42;;;;;;;7.65;2.80;;;;;;;;;;5009904;28;20055;-63
2023/03/06 01:57:16;;;;;;;7.40;2.80;;;;;;;;;;5015568;28;20084;-62
2023/03/06 01:59:41;;;;;;;6.25;2.80;;;;;;;;;;5016307;28;20492;-62
2023/03/06 02:02:09;;;;;;;6.57;2.43;;;;;;;;;;5013523;28;20026;-64
2023/03/06 02:04:35;;;;;;;6.53;2.70;;;;;;;;;;5019469;28;20068;-64
2023/03/06 02:07:03;;;;;;;6.82;2.80;;;;;;;;;;5013093;28;20060;-63
2023/03/06 02:09:29;;;;;;;9.32;3.47;;;;;;;;;;5020058;28;20124;-64
2023/03/06 02:11:54;;;;;;;8.88;3.05;;;;;;;;;;5013418;28;20105;-64
2023/03/06 02:14:20;;;;;;;8.50;3.13;;;;;;;;;;5021346;28;20041;-63
2023/03/06 02:16:46;;;;;;;7.35;3.05;;;;;;;;;;5012387;28;20042;-63
2023/03/06 02:19:30;;;;;;;7.43;3.08;;;;;;;;;;5013660;28;20088;-63
2023/03/06 02:21:55;;;;;;;7.88;2.90;;;;;;;;;;5014175;28;20492;-63
2023/03/06 02:24:31;;;;;;;7.43;2.93;;;;;;;;;;5011872;28;20018;-64
2023/03/06 02:26:56;;;;;;;9.95;4.00;;;;;;;;;;5019753;28;20380;-64
2023/03/06 02:29:25;;;;;;;9.88;3.13;;;;;;;;;;5018986;28;20091;-63
2023/03/06 02:31:50;;;;;;;9.02;3.00;;;;;;;;;;5015268;28;20026;-63
2023/03/06 02:34:15;;;;;;;7.33;3.17;;;;;;;;;;5013561;28;20069;-64
2023/03/06 02:36:43;;;;;;;8.10;3.33;;;;;;;;;;5015818;28;20054;-62
2023/03/06 02:39:08;;;;;;;7.97;3.20;;;;;;;;;;5011126;28;20022;-62
2023/03/06 02:41:33;;;;;;;8.63;3.42;;;;;;;;;;5013022;28;20080;-62
2023/03/06 02:43:58;;;;;;;7.72;3.13;;;;;;;;;;5011317;28;20033;-63
2023/03/06 02:46:23;;;;;;;9.60;3.27;;;;;;;;;;5011948;28;20374;-63
2023/03/06 02:48:48;;;;;;;7.97;3.70;;;;;;;;;;5015605;28;20489;-62
2023/03/06 02:51:13;;;;;;;8.37;3.53;;;;;;;;;;5012294;28;20393;-63
2023/03/06 02:53:39;;;;;;;8.27;3.30;;;;;;;;;;5010457;28;20022;-63
2023/03/06 02:56:04;;;;;;;9.67;3.63;;;;;;;;;;5012317;28;20018;-64
2023/03/06 02:58:29;;;;;;;7.37;3.00;;;;;;;;;;5011119;28;20022;-63
2023/03/06 03:00:54;;;;;;;9.18;3.70;;;;;;;;;;5009710;28;20460;-63
2023/03/06 03:03:19;;;;;;;9.47;3.63;;;;;;;;;;5014022;28;20025;-63
2023/03/06 03:05:44;;;;;;;8.48;3.25;;;;;;;;;;5010491;28;20022;-63
2023/03/06 03:08:10;;;;;;;9.25;3.60;;;;;;;;;;5014186;28;20025;-63
2023/03/06 03:10:35;;;;;;;10.23;3.60;;;;;;;;;;5015918;28;20029;-63
2023/03/06 03:13:00;;;;;;;9.17;3.53;;;;;;;;;;5013389;28;20037;-63
2023/03/06 03:15:25;;;;;;;8.97;3.60;;;;;;;;;;5013797;28;20026;-63
2023/03/06 03:17:50;;;;;;;8.13;3.47;;;;;;;;;;5012327;28;20026;-62
2023/03/06 03:20:17;;;;;;;9.40;3.30;;;;;;;;;;5011452;28;20476;-62
2023/03/06 03:22:46;;;;;;;9.20;3.70;;;;;;;;;;5014259;28;20030;-62
2023/03/06 03:25:11;;;;;;;9.95;3.72;;;;;;;;;;5015625;28;20030;-62
2023/03/06 03:27:36;;;;;;;12.20;3.70;;;;;;;;;;5017478;28;20029;-62
2023/03/06 03:30:01;;;;;;;9.77;3.60;;;;;;;;;;5011722;28;20065;-62
2023/03/06 03:32:26;;;;;;;9.07;4.10;;;;;;;;;;5011146;28;20022;-62
2023/03/06 03:34:53;;;;;;;9.88;3.78;;;;;;;;;;5011202;28;20499;-63
2023/03/06 03:37:18;;;;;;;9.48;3.63;;;;;;;;;;5012480;28;20021;-62
2023/03/06 03:39:44;;;;;;;8.43;3.57;;;;;;;;;;5013997;28;20495;-62
2023/03/06 03:42:09;;;;;;;10.77;3.73;;;;;;;;;;5010079;28;20022;-62
2023/03/06 03:44:34;;;;;;;9.15;3.83;;;;;;;;;;5013862;28;20519;-63
2023/03/06 03:46:59;;;;;;;10.05;3.78;;;;;;;;;;5011400;28;20178;-62
2023/03/06 03:49:24;;;;;;;8.75;3.63;;;;;;;;;;5011952;28;20033;-63
2023/03/06 03:51:50;;;;;;;9.33;3.77;;;;;;;;;;5010154;28;20026;-62
2023/03/06 03:54:15;;;;;;;10.20;4.00;;;;;;;;;;5011563;28;20436;-62
2023/03/06 03:56:40;;;;;;;10.45;3.90;;;;;;;;;;5011149;28;20100;-64
2023/03/06 03:59:05;;;;;;;8.93;3.80;;;;;;;;;;5011629;28;20064;-62
2023/03/06 04:01:31;;;;;;;8.57;3.53;;;;;;;;;;5011885;28;20025;-62
2023/03/06 04:03:56;;;;;;;10.87;4.10;;;;;;;;;;5010453;28;20109;-62
2023/03/06 04:06:21;;;;;;;10.68;3.70;;;;;;;;;;5007585;28;20026;-62
2023/03/06 04:08:46;;;;;;;9.95;4.20;;;;;;;;;;5014106;28;20488;-63
2023/03/06 04:11:11;;;;;;;9.30;4.00;;;;;;;;;;5012257;28;20050;-62
2023/03/06 04:13:36;;;;;;;10.07;3.97;;;;;;;;;;5009241;28;20025;-63
2023/03/06 04:16:02;;;;;;;8.93;3.40;;;;;;;;;;5012725;28;20474;-62
2023/03/06 04:18:27;;;;;;;9.60;4.05;;;;;;;;;;5020066;28;20024;-62
2023/03/06 04:20:53;;;;;;;10.65;4.03;;;;;;;;;;5014664;28;20022;-63
2023/03/06 04:23:18;;;;;;;10.10;4.10;;;;;;;;;;5011554;28;20021;-62
2023/03/06 04:25:44;;;;;;;8.95;3.80;;;;;;;;;;5017926;28;20029;-62
2023/03/06 04:28:09;;;;;;;9.02;3.80;;;;;;;;;;5014488;28;20113;-62
2023/03/06 04:30:35;;;;;;;8.85;3.72;;;;;;;;;;5018742;28;20022;-63
2023/03/06 04:33:00;;;;;;;9.57;3.53;;;;;;;;;;5019361;28;20033;-62
2023/03/06 04:35:25;;;;;;;8.85;3.50;;;;;;;;;;5017633;28;20509;-62
2023/03/06 04:37:50;;;;;;;9.30;3.43;;;;;;;;;;5015625;28;20104;-62
2023/03/06 04:40:20;;;;;;;9.67;3.80;;;;;;;;;;5012477;28;20464;-62
2023/03/06 04:42:45;;;;;;;9.07;3.40;;;;;;;;;;5008937;28;20096;-63
2023/03/06 04:45:11;;;;;;;9.38;3.72;;;;;;;;;;5010310;28;20093;-63
2023/03/06 04:47:36;;;;;;;8.73;3.40;;;;;;;;;;5012841;28;20034;-63
2023/03/06 04:50:01;;;;;;;9.60;3.70;;;;;;;;;;5008555;28;20480;-62
2023/03/06 04:52:26;;;;;;;8.45;3.50;;;;;;;;;;5009599;28;20387;-63
2023/03/06 04:54:51;;;;;;;8.45;3.65;;;;;;;;;;5013311;28;20064;-62
2023/03/06 04:57:17;;;;;;;8.98;3.55;;;;;;;;;;5010232;28;20041;-63
2023/03/06 04:59:42;;;;;;;8.83;3.60;;;;;;;;;;5010306;28;20021;-62
2023/03/06 05:02:07;;;;;;;10.70;3.90;;;;;;;;;;5015296;28;20026;-62
2023/03/06 05:04:32;;;;;;;10.33;4.10;;;;;;;;;;5010698;28;20089;-63
2023/03/06 05:06:57;;;;;;;8.88;3.85;;;;;;;;;;5012864;28;20033;-63
2023/03/06 05:09:22;;;;;;;8.75;3.47;;;;;;;;;;5018103;28;20507;-62
2023/03/06 05:11:48;;;;;;;12.07;3.97;;;;;;;;;;5013314;28;20030;-61
2023/03/06 05:14:13;;;;;;;9.53;3.77;;;;;;;;;;5021707;28;20033;-62
2023/03/06 05:16:38;;;;;;;9.50;3.87;;;;;;;;;;5016090;28;20109;-61
2023/03/06 05:19:03;;;;;;;10.30;4.03;;;;;;;;;;5012643;28;20382;-62
2023/03/06 05:21:28;;;;;;;8.87;3.73;;;;;;;;;;5007689;28;20030;-62
2023/03/06 05:23:53;;;;;;;8.50;3.90;;;;;;;;;;5009825;28;20021;-61
2023/03/06 05:26:18;;;;;;;8.75;3.70;;;;;;;;;;5009885;28;20044;-63
2023/03/06 05:28:44;;;;;;;9.43;3.90;;;;;;;;;;5013404;28;20029;-63
2023/03/06 05:31:09;;;;;;;9.17;3.90;;;;;;;;;;5012092;28;20028;-63
2023/03/06 05:33:34;;;;;;;8.90;3.53;;;;;;;;;;5013153;28;20022;-63
2023/03/06 05:36:03;;;;;;;10.43;4.05;;;;;;;;;;5011198;28;20148;-62
2023/03/06 05:38:30;;;;;;;11.60;4.03;;;;;;;;;;5004686;28;20400;-62
2023/03/06 05:40:55;;;;;;;9.95;3.55;;;;;;;;;;5015852;28;20487;-63
2023/03/06 05:43:20;;;;;;;9.77;4.20;;;;;;;;;;5020666;28;20041;-64
2023/03/06 05:45:46;;;;;;;11.27;4.23;;;;;;;;;;5027158;28;20037;-64
2023/03/06 05:48:11;;;;;;;12.88;4.45;;;;;;;;;;5019744;28;20120;-63
2023/03/06 05:50:37;;;;;;;10.52;3.95;;;;;;;;;;5017154;28;20382;-63
2023/03/06 05:53:02;;;;;;;11.13;4.77;;;;;;;;;;5018165;28;20500;-63
2023/03/06 05:55:27;;;;;;;9.17;4.07;;;;;;;;;;5020950;28;20029;-62
2023/03/06 05:57:52;;;;;;;10.70;4.10;;;;;;;;;;5011332;28;20057;-62
2023/03/06 06:00:18;;;;;;;12.73;4.80;;;;;;;;;;5009573;28;20568;-63
2023/03/06 06:02:44;;;;;;;10.85;4.32;;;;;;;;;;5009677;28;20029;-62
2023/03/06 06:05:09;;;;;;;9.48;4.10;;;;;;;;;;5012021;28;20033;-64
2023/03/06 06:07:35;;;;;;;9.77;4.28;;;;;;;;;;5010170;28;20127;-63
2023/03/06 06:10:00;;;;;;;11.27;4.05;;;;;;;;;;5022457;28;20025;-62
2023/03/06 06:12:25;;;;;;;11.33;4.53;;;;;;;;;;5016349;28;20022;-62
2023/03/06 06:14:51;;;;;;;10.05;4.35;;;;;;;;;;5026327;28;20500;-62
2023/03/06 06:17:16;;;;;;;11.53;4.27;;;;;;;;;;5021098;28;20048;-62
2023/03/06 06:19:41;;;;;;;9.70;4.23;;;;;;;;;;5030430;28;20021;-62
2023/03/06 06:22:06;;;;;;;11.27;4.75;;;;;;;;;;5022494;28;20100;-62
2023/03/06 06:24:31;;;;;;;10.50;4.80;;;;;;;;;;5031488;28;20025;-63
2023/03/06 06:26:57;;;;;;;10.67;4.33;;;;;;;;;;5016469;28;20552;-63
2023/03/06 06:29:22;;;;;;;13.82;4.93;;;;;;;;;;5013738;28;20030;-63
2023/03/06 06:31:47;;;;;;;10.47;4.23;;;;;;;;;;5013535;28;20028;-63
2023/03/06 06:34:13;;;;;;;9.93;4.70;;;;;;;;;;5013136;28;20076;-63
2023/03/06 06:36:38;;;;;;;11.70;4.65;;;;;;;;;;5013627;28;20505;-63
2023/03/06 06:39:04;;;;;;;11.75;4.80;;;;;;;;;;5012671;28;20022;-62
2023/03/06 06:41:29;;;;;;;11.35;4.35;;;;;;;;;;5004562;28;20026;-61
2023/03/06 06:43:54;;;;;;;11.55;4.60;;;;;;;;;;5012876;28;20345;-62
2023/03/06 06:46:19;;;;;;;11.00;4.40;;;;;;;;;;5013322;28;20079;-62
2023/03/06 06:48:46;;;;;;;11.83;4.90;;;;;;;;;;5013538;28;20033;-61
2023/03/06 06:51:11;;;;;;;;;;;;;;;;;;5013118;28;20491;-61
2023/03/06 06:53:36;;;;;;;10.68;4.55;;;;;;;;;;5014873;28;20067;-61
2023/03/06 06:56:02;;;;;;;9.68;3.90;;;;;;;;;;5006013;28;20030;-62
2023/03/06 06:58:27;;;;;;;11.57;4.80;;;;;;;;;;5021970;28;20051;-61
2023/03/06 07:00:52;;;;;;;12.40;4.05;;;;;;;;;;5018170;28;20029;-61
2023/03/06 07:03:17;;;;;;;11.48;4.50;;;;;;;;;;5032493;28;20082;-62
2023/03/06 07:05:42;;;;;;;10.00;3.87;;;;;;;;;;5016340;28;20550;-61
2023/03/06 07:08:08;;;;;;;11.43;4.63;;;;;;;;;;5012568;28;20499;-62
2023/03/06 07:10:34;;;;;;;11.13;4.22;;;;;;;;;;5009021;28;20022;-62
2023/03/06 07:12:59;;;;;;;10.77;4.85;;;;;;;;;;5017482;28;20112;-62
2023/03/06 07:15:25;;;;;;;13.40;4.95;;;;;;;;;;5018802;28;20053;-61
2023/03/06 07:17:51;;;;;;;12.05;4.88;;;;;;;;;;5020098;28;20024;-62
2023/03/06 07:20:17;;;;;;;15.48;5.38;;;;;;;;;;5031560;28;20034;-63
2023/03/06 07:22:42;;;;;;;12.40;4.82;;;;;;;;;;5013511;28;20029;-63
2023/03/06 07:25:07;;;;;;;14.30;5.03;;;;;;;;;;5017519;28;20013;-62
2023/03/06 07:27:32;;;;;;;14.43;5.55;;;;;;;;;;5010256;28;20080;-62
2023/03/06 07:29:57;;;;;;;12.53;5.13;;;;;;;;;;5009924;28;20034;-62
2023/03/06 07:32:23;;;;;;;11.35;4.50;;;;;;;;;;5021752;28;20427;-61
2023/03/06 07:34:48;;;;;;;11.03;4.87;;;;;;;;;;5021854;28;20380;-62
2023/03/06 07:37:13;;;;;;;12.73;4.82;;;;;;;;;;5027002;28;20021;-61
2023/03/06 07:39:38;;;;;;;11.03;4.63;;;;;;;;;;5026504;28;20103;-63
2023/03/06 07:42:04;;;;;;;13.52;5.80;;;;;;;;;;5013984;28;20079;-62
2023/03/06 07:44:29;;;;;;;12.77;5.50;;;;;;;;;;5024881;28;20067;-63
2023/03/06 07:46:54;;;;;;;12.13;4.80;;;;;;;;;;5019248;28;20029;-64
2023/03/06 07:49:19;;;;;;;11.13;4.97;;;;;;;;;;5018827;28;20072;-63
2023/03/06 07:51:44;;;;;;;14.63;5.40;;;;;;;;;;5010241;28;20497;-62
2023/03/06 07:54:09;;;;;;;14.23;4.88;;;;;;;;;;5012373;28;20018;-61
2023/03/06 07:56:35;;;;;;;12.02;5.13;;;;;;;;;;5010652;28;20021;-62
2023/03/06 07:59:00;;;;;;;12.37;4.97;;;;;;;;;;5012922;28;20401;-62
2023/03/06 08:01:25;;;;;;;10.53;4.80;;;;;;;;;;5028622;28;20472;-62
2023/03/06 08:03:51;;;;;;;12.18;4.70;;;;;;;;;;5030950;28;20028;-61
2023/03/06 08:06:17;;;;;;;10.63;4.30;;;;;;;;;;5012226;28;20021;-61
2023/03/06 08:08:43;;;;;;;;;;;;;;;;;;5011706;28;20038;-61
2023/03/06 08:11:09;;;;;;;14.30;6.15;;;;;;;;;;5011628;28;19913;-62
2023/03/06 08:13:35;;;;;;;18.65;5.63;;;;;;;;;;5011352;28;20114;-62
2023/03/06 08:16:00;;;;;;;15.73;5.18;;;;;;;;;;5010320;28;20105;-60
2023/03/06 08:18:26;;;;;;;14.70;4.87;;;;;;;;;;5011496;28;20072;-62
2023/03/06 08:20:59;;;;;;;10.45;4.78;;;;;;;;;;5011504;28;20025;-62
2023/03/06 08:23:25;;;;;;;13.52;5.40;;;;;;;;;;5011104;28;20018;-62
2023/03/06 08:25:54;;;;;;;12.33;5.00;;;;;;;;;;5011054;28;20021;-62
2023/03/06 08:28:19;;;;;;;13.57;5.30;;;;;;;;;;4991180;28;20101;-62
2023/03/06 08:30:44;;;;;;;11.00;4.80;;;;;;;;;;5008600;28;20494;-62
2023/03/06 08:33:10;;;;;;;12.13;4.70;;;;;;;;;;5009728;28;20022;-62
2023/03/06 08:35:35;;;;;;;10.82;4.43;;;;;;;;;;5011466;28;20025;-61
2023/03/06 08:38:00;;;;;;;13.43;5.33;;;;;;;;;;5010928;28;20546;-62
2023/03/06 08:40:29;;;;;;;12.07;5.00;;;;;;;;;;5011999;28;20424;-61
2023/03/06 08:42:54;;;;;;;13.23;5.32;;;;;;;;;;5012196;28;20033;-61
2023/03/06 08:45:19;;;;;;;14.13;5.57;;;;;;;;;;5010310;28;20017;-62
2023/03/06 08:47:44;;;;;;;12.02;4.88;;;;;;;;;;5012105;28;20548;-62
2023/03/06 08:50:10;;;;;;;12.00;4.90;;;;;;;;;;5013015;28;20029;-62
2023/03/06 08:52:35;;;;;;;11.60;4.82;;;;;;;;;;5013037;28;20536;-61
2023/03/06 08:55:02;;;;;;;14.30;5.43;;;;;;;;;;5012388;28;20026;-62
2023/03/06 08:57:27;;;;;;;13.50;5.25;;;;;;;;;;5013718;28;20097;-62
2023/03/06 08:59:52;;;;;;;12.05;5.05;;;;;;;;;;5013937;28;20049;-62
2023/03/06 09:02:17;;;;;;;10.68;4.90;;;;;;;;;;5019673;28;20069;-61
2023/03/06 09:04:42;;;;;;;11.90;5.13;;;;;;;;;;5018156;28;20032;-61
2023/03/06 09:07:08;;;;;;;13.95;5.57;;;;;;;;;;5021403;28;20034;-61
2023/03/06 09:09:33;;;;;;;13.93;5.27;;;;;;;;;;5015372;28;20017;-61
2023/03/06 09:11:58;;;;;;;13.30;5.43;;;;;;;;;;5012010;28;20048;-62
2023/03/06 09:14:23;;;;;;;12.10;5.35;;;;;;;;;;5009484;28;20032;-62
2023/03/06 09:16:48;;;;;;;11.00;5.25;;;;;;;;;;5010098;28;20052;-62
2023/03/06 09:19:13;;;;;;;14.40;5.63;;;;;;;;;;5010424;28;20033;-61
2023/03/06 09:21:38;;;;;;;12.60;5.47;;;;;;;;;;5010813;28;20018;-62
2023/03/06 09:24:04;;;;;;;12.73;5.40;;;;;;;;;;5010135;28;20029;-62
2023/03/06 09:26:29;;;;;;;12.83;5.03;;;;;;;;;;5011170;28;20022;-62
2023/03/06 09:28:54;;;;;;;12.43;5.35;;;;;;;;;;5010173;28;20071;-62
2023/03/06 09:31:19;;;;;;;11.35;5.20;;;;;;;;;;5009757;28;20095;-62
2023/03/06 09:33:45;;;;;;;13.02;6.03;;;;;;;;;;5010196;28;20033;-62
2023/03/06 09:36:14;;;;;;;12.95;5.35;;;;;;;;;;5012882;28;20033;-63
2023/03/06 09:38:39;;;;;;;13.40;5.40;;;;;;;;;;5014864;28;20498;-62
2023/03/06 09:41:20;;;;;;;14.03;5.70;;;;;;;;;;5017569;28;20052;-61
2023/03/06 09:43:46;;;;;;;13.75;5.80;;;;;;;;;;5016205;28;20114;-61
2023/03/06 09:46:15;;;;;;;13.32;5.63;;;;;;;;;;5016847;28;20029;-62
2023/03/06 09:49:09;;;;;;;12.57;5.15;;;;;;;;;;5013645;28;20471;-63
2023/03/06 09:51:38;;;;;;;13.95;5.82;;;;;;;;;;5014676;28;20045;-62
2023/03/06 09:54:10;;;;;;;13.18;5.80;;;;;;;;;;5013954;28;20496;-62
2023/03/06 09:56:35;;;;;;;15.80;6.28;;;;;;;;;;5010187;28;20033;-62
2023/03/06 09:59:09;;;;;;;14.38;5.97;;;;;;;;;;5013852;28;20026;-62
2023/03/06 10:01:35;;;;;;;15.57;6.45;;;;;;;;;;5000284;28;20050;-63
2023/03/06 10:04:17;;;;;;;14.07;6.05;;;;;;;;;;5012030;28;20026;-62
2023/03/06 10:06:46;;;;;;;14.40;5.82;;;;;;;;;;5011084;28;20105;-62
2023/03/06 10:09:13;;;;;;;16.15;6.20;;;;;;;;;;5012719;28;20050;-62
2023/03/06 10:11:41;;;;;;;14.35;6.57;;;;;;;;;;5014417;28;20545;-62
2023/03/06 10:14:14;;;;;;;14.18;6.57;;;;;;;;;;5013489;28;20484;-62
2023/03/06 10:16:39;;;;;;;11.90;5.57;;;;;;;;;;5013975;28;20026;-63
2023/03/06 10:19:10;;;;;;;13.43;6.03;;;;;;;;;;5013543;28;20509;-62
2023/03/06 10:21:44;;;;;;;12.35;5.88;;;;;;;;;;5012528;28;20510;-62
2023/03/06 10:24:16;;;;;;;13.07;6.32;;;;;;;;;;5012708;28;20428;-62
2023/03/06 10:26:43;;;;;;;13.32;5.63;;;;;;;;;;5013901;28;20057;-63
2023/03/06 10:29:11;;;;;;;13.00;6.50;;;;;;;;;;5013915;28;20018;-62
2023/03/06 10:31:43;;;;;;;16.90;6.22;;;;;;;;;;5013711;28;20388;-62
2023/03/06 10:34:14;;;;;;;14.00;5.82;;;;;;;;;;5011191;28;20022;-63
2023/03/06 10:36:39;;;;;;;14.63;6.10;;;;;;;;;;5007428;28;20029;-62
2023/03/06 10:39:09;;;;;;;14.15;6.35;;;;;;;;;;5028686;28;20014;-62
2023/03/06 10:41:35;;;;;;;13.35;6.07;;;;;;;;;;5013835;28;20021;-62
2023/03/06 10:44:03;;;;;;;14.57;6.03;;;;;;;;;;5013159;28;20388;-62
2023/03/06 10:46:29;;;;;;;14.65;6.20;;;;;;;;;;5013747;28;20033;-63
2023/03/06 10:49:02;;;;;;;14.40;6.15;;;;;;;;;;5013563;28;20029;-62
2023/03/06 10:51:28;;;;;;;13.43;5.97;;;;;;;;;;5004677;28;20150;-63
2023/03/06 10:53:55;;;;;;;16.48;6.13;;;;;;;;;;5012898;28;20025;-63
2023/03/06 10:56:20;;;;;;;;;;;;;;;;;;5006815;28;20014;-64
2023/03/06 10:58:45;;;;;;;15.73;6.63;;;;;;;;;;5014643;28;19905;-62
2023/03/06 11:01:18;;;;;;;13.90;6.50;;;;;;;;;;5015230;28;20049;-62
2023/03/06 11:03:44;;;;;;;16.23;7.28;;;;;;;;;;5014414;28;20459;-62
2023/03/06 11:06:11;;;;;;;16.30;7.07;;;;;;;;;;5007595;28;20130;-62
2023/03/06 11:08:36;;;;;;;17.42;7.10;;;;;;;;;;5014744;28;20022;-62
2023/03/06 11:11:10;;;;;;;15.52;6.25;;;;;;;;;;5014369;28;20535;-62
2023/03/06 11:13:36;;;;;;;15.02;6.47;;;;;;;;;;5006335;28;20014;-63
2023/03/06 11:16:13;;;;;;;16.30;7.20;;;;;;;;;;5006423;28;20018;-63
2023/03/06 11:18:41;;;;;;;13.48;6.43;;;;;;;;;;5012301;28;20038;-63
2023/03/06 11:21:24;;;;;;;13.57;6.63;;;;;;;;;;5026313;28;20028;-62
2023/03/06 11:23:50;;;;;;;15.75;6.65;;;;;;;;;;5011017;28;20072;-63
2023/03/06 11:26:15;;;;;;;18.98;6.88;;;;;;;;;;5023072;28;20108;-63
2023/03/06 11:28:58;;;;;;;13.33;6.47;;;;;;;;;;5017768;28;20014;-62
2023/03/06 11:31:31;;;;;;;14.52;6.70;;;;;;;;;;5012817;28;20030;-61
2023/03/06 11:34:03;;;;;;;15.98;6.85;;;;;;;;;;5012181;28;20485;-62
2023/03/06 11:36:40;;;;;;;16.75;7.18;;;;;;;;;;5009222;28;20066;-62
2023/03/06 11:39:31;;;;;;;17.27;6.95;;;;;;;;;;5011322;28;20366;-62
2023/03/06 11:42:11;;;;;;;15.13;6.57;;;;;;;;;;5009758;28;20083;-62
2023/03/06 11:44:55;;;;;;;14.60;6.38;;;;;;;;;;5011343;28;20089;-62
2023/03/06 11:47:41;;;;;;;17.02;7.13;;;;;;;;;;5004957;28;20053;-63
2023/03/06 11:50:15;;;;;;;16.05;6.95;;;;;;;;;;5012609;28;20057;-62
2023/03/06 11:52:45;;;;;;;16.63;7.38;;;;;;;;;;5012237;28;20022;-62
2023/03/06 11:55:13;;;;;;;15.65;7.22;;;;;;;;;;5003236;28;20031;-63
2023/03/06 11:57:45;;;;;;;14.07;6.32;;;;;;;;;;5012202;28;20026;-62
2023/03/06 12:00:13;;;;;;;16.60;7.78;;;;;;;;;;5012372;28;20017;-63
2023/03/06 12:03:05;;;;;;;17.52;7.30;;;;;;;;;;5011495;28;20018;-62
2023/03/06 12:05:35;;;;;;;18.52;8.13;;;;;;;;;;5010088;28;20065;-61
2023/03/06 12:08:19;;;;;;;16.23;6.82;;;;;;;;;;5010101;28;20026;-62
2023/03/06 12:10:52;;;;;;;16.15;6.97;;;;;;;;;;5006490;28;20049;-62
2023/03/06 12:13:26;;;;;;;17.00;7.68;;;;;;;;;;5011378;28;20018;-63
2023/03/06 12:16:07;;;;;;;16.92;7.50;;;;;;;;;;5010850;28;20025;-63
2023/03/06 12:18:38;;;;;;;18.60;8.32;;;;;;;;;;5011753;28;20022;-64
2023/03/06 12:21:15;;;;;;;16.45;7.20;;;;;;;;;;5009785;28;20029;-62
2023/03/06 12:23:56;;;;;;;17.50;7.63;;;;;;;;;;5005552;28;20073;-62
2023/03/06 12:26:27;;;;;;;14.95;6.63;;;;;;;;;;5011404;28;20025;-63
2023/03/06 12:29:00;;;;;;;15.50;7.45;;;;;;;;;;5011897;28;20021;-63
2023/03/06 12:31:38;;;;;;;19.05;7.93;;;;;;;;;;5027176;28;20093;-63
2023/03/06 12:34:04;;;;;;;17.23;7.95;;;;;;;;;;5010712;28;20045;-63
2023/03/06 12:36:48;;;;;;;17.73;8.23;;;;;;;;;;5011297;28;20107;-63
2023/03/06 12:39:24;;;;;;;15.02;6.90;;;;;;;;;;5011628;28;20112;-63
2023/03/06 12:42:08;;;;;;;16.90;7.57;;;;;;;;;;5011078;28;20038;-63
2023/03/06 12:44:39;;;;;;;17.33;7.97;;;;;;;;;;5003669;28;20021;-63
2023/03/06 12:47:08;;;;;;;15.88;7.15;;;;;;;;;;5011564;28;20026;-62
2023/03/06 12:49:37;;;;;;;17.73;7.90;;;;;;;;;;5011289;28;20519;-63
2023/03/06 12:52:03;;;;;;;16.35;7.63;;;;;;;;;;4997423;28;20029;-63
2023/03/06 12:54:30;;;;;;;15.55;7.35;;;;;;;;;;5010775;28;20022;-63
2023/03/06 12:56:56;;;;;;;16.58;7.22;;;;;;;;;;5001944;28;20026;-62
2023/03/06 12:59:42;;;;;;;18.00;7.35;;;;;;;;;;5009800;28;20120;-63
2023/03/06 13:02:21;;;;;;;16.63;7.68;;;;;;;;;;5010988;28;20097;-62
2023/03/06 13:04:53;;;;;;;17.15;6.45;;;;;;;;;;5010632;28;20025;-63
2023/03/06 13:07:27;;;;;;;17.27;7.43;;;;;;;;;;5011481;28;20057;-62
2023/03/06 13:10:01;;;;;;;15.50;7.13;;;;;;;;;;5011161;28;20022;-62
2023/03/06 13:12:37;;;;;;;14.77;6.60;;;;;;;;;;5008649;28;20037;-63
2023/03/06 13:15:22;;;;;;;14.50;6.57;;;;;;;;;;5013066;28;20088;-62
2023/03/06 13:17:47;;;;;;;14.90;7.10;;;;;;;;;;4992465;28;20040;-62
2023/03/06 13:20:12;;;;;;;14.97;6.87;;;;;;;;;;5013559;28;20037;-62
2023/03/06 13:22:38;;;;;;;14.85;6.68;;;;;;;;;;5013257;28;20021;-61
2023/03/06 13:25:16;;;;;;;15.63;6.82;;;;;;;;;;5007634;28;20014;-63
2023/03/06 13:27:45;;;;;;;14.77;6.57;;;;;;;;;;5009876;28;20026;-63
2023/03/06 13:30:23;;;;;;;16.38;7.30;;;;;;;;;;5009776;28;20401;-62
2023/03/06 13:32:51;;;;;;;14.88;6.75;;;;;;;;;;5010923;28;20022;-62
2023/03/06 13:35:36;;;;;;;17.42;7.20;;;;;;;;;;5010565;28;20488;-62
2023/03/06 13:38:02;;;;;;;17.05;7.95;;;;;;;;;;5004598;28;20427;-61
2023/03/06 13:40:29;;;;;;;17.47;7.60;;;;;;;;;;5011464;28;20018;-63
2023/03/06 13:43:01;;;;;;;17.23;7.20;;;;;;;;;;5012914;28;20068;-61
2023/03/06 13:45:37;;;;;;;17.90;7.07;;;;;;;;;;5013579;28;20117;-63
2023/03/06 13:48:03;;;;;;;17.83;8.05;;;;;;;;;;5015066;28;20128;-63
2023/03/06 13:50:45;;;;;;;16.42;7.43;;;;;;;;;;5016479;28;20493;-61
2023/03/06 13:53:30;;;;;;;17.48;7.80;;;;;;;;;;5016292;28;20029;-63
2023/03/06 13:56:02;;;;;;;17.42;6.90;;;;;;;;;;4999284;28;20466;-63
2023/03/06 13:58:38;;;;;;;17.83;7.68;;;;;;;;;;5010196;28;20101;-63
2023/03/06 14:01:12;;;;;;;15.88;6.85;;;;;;;;;;5006265;28;20033;-63
2023/03/06 14:03:55;;;;;;;15.55;7.10;;;;;;;;;;5010027;28;20018;-63
2023/03/06 14:06:33;;;;;;;16.48;7.15;;;;;;;;;;5009287;28;20018;-63
2023/03/06 14:08:58;;;;;;;17.63;7.20;;;;;;;;;;5009416;28;20022;-63
2023/03/06 14:11:23;;;;;;;18.80;7.13;;;;;;;;;;5010027;28;20431;-64
2023/03/06 14:13:50;;;;;;;15.93;7.30;;;;;;;;;;5010596;28;20018;-62
2023/03/06 14:16:18;;;;;;;15.30;7.32;;;;;;;;;;5010724;28;20022;-63
2023/03/06 14:18:45;;;;;;;13.73;6.45;;;;;;;;;;5010522;28;20026;-63
2023/03/06 14:21:12;;;;;;;14.77;7.22;;;;;;;;;;5009149;28;20030;-63
2023/03/06 14:23:41;;;;;;;13.18;6.15;;;;;;;;;;5009446;28;20018;-64
2023/03/06 14:26:17;;;;;;;13.82;6.70;;;;;;;;;;5012955;28;20026;-63
2023/03/06 14:28:43;;;;;;;12.70;6.00;;;;;;;;;;5014267;28;20072;-61
2023/03/06 14:31:14;;;;;;;11.55;5.38;;;;;;;;;;5014062;28;20057;-62
2023/03/06 14:33:48;;;;;;;13.05;6.15;;;;;;;;;;5017369;28;20428;-62
2023/03/06 14:36:15;;;;;;;13.20;6.20;;;;;;;;;;5014414;28;20046;-64
2023/03/06 14:38:48;;;;;;;12.73;6.40;;;;;;;;;;5013690;28;20465;-64